sensor_id;sensor_type;location;lat;lon;timestamp;pressure;altitude;pressure_sealevel;temperature;humidity
21300;BME280;10809;49.476;11.016;2023-09-08T00:01:47;98581.03;;;21.28;43.61
21300;BME280;10809;49.476;11.016;2023-09-08T00:04:18;98575.91;;;21.25;43.52
21300;BME280;10809;49.476;11.016;2023-09-08T00:06:50;98574.53;;;21.21;43.70
21300;BME280;10809;49.476;11.016;2023-09-08T00:09:26;98573.09;;;21.17;43.35
21300;BME280;10809;49.476;11.016;2023-09-08T00:11:57;98575.09;;;21.15;43.81
21300;BME280;10809;49.476;11.016;2023-09-08T00:14:27;98569.97;;;21.12;43.79
21300;BME280;10809;49.476;11.016;2023-09-08T00:16:58;98573.81;;;21.10;44.02
21300;BME280;10809;49.476;11.016;2023-09-08T00:19:29;98564.34;;;21.06;43.87
21300;BME280;10809;49.476;11.016;2023-09-08T00:21:59;98575.41;;;21.03;43.64
21300;BME280;10809;49.476;11.016;2023-09-08T00:24:30;98569.44;;;20.99;44.04
21300;BME280;10809;49.476;11.016;2023-09-08T00:27:01;98567.03;;;20.96;43.84
21300;BME280;10809;49.476;11.016;2023-09-08T00:29:32;98565.59;;;20.92;43.98
21300;BME280;10809;49.476;11.016;2023-09-08T00:32:02;98571.28;;;20.89;44.10
21300;BME280;10809;49.476;11.016;2023-09-08T00:34:33;98568.16;;;20.84;44.13
21300;BME280;10809;49.476;11.016;2023-09-08T00:37:03;98567.59;;;20.81;44.16
21300;BME280;10809;49.476;11.016;2023-09-08T00:39:37;98569.72;;;20.77;44.32
21300;BME280;10809;49.476;11.016;2023-09-08T00:42:08;98570.03;;;20.74;44.42
21300;BME280;10809;49.476;11.016;2023-09-08T00:44:38;98573.97;;;20.70;44.49
21300;BME280;10809;49.476;11.016;2023-09-08T00:47:09;98569.88;;;20.66;44.40
21300;BME280;10809;49.476;11.016;2023-09-08T00:49:39;98573.69;;;20.64;44.48
21300;BME280;10809;49.476;11.016;2023-09-08T00:52:10;98574.97;;;20.60;44.43
21300;BME280;10809;49.476;11.016;2023-09-08T00:54:40;98576.09;;;20.57;44.64
21300;BME280;10809;49.476;11.016;2023-09-08T00:57:11;98567.44;;;20.54;44.46
21300;BME280;10809;49.476;11.016;2023-09-08T00:59:42;98569.56;;;20.50;44.69
21300;BME280;10809;49.476;11.016;2023-09-08T01:02:13;98557.41;;;20.46;44.62
21300;BME280;10809;49.476;11.016;2023-09-08T01:04:44;98563.06;;;20.43;44.66
21300;BME280;10809;49.476;11.016;2023-09-08T01:07:15;98565.16;;;20.40;44.75
21300;BME280;10809;49.476;11.016;2023-09-08T01:09:47;98568.28;;;20.35;44.88
21300;BME280;10809;49.476;11.016;2023-09-08T01:12:18;98567.72;;;20.32;45.15
21300;BME280;10809;49.476;11.016;2023-09-08T01:14:49;98572.53;;;20.28;44.95
21300;BME280;10809;49.476;11.016;2023-09-08T01:17:20;98572.81;;;20.25;44.93
21300;BME280;10809;49.476;11.016;2023-09-08T01:19:53;98575.75;;;20.22;44.96
21300;BME280;10809;49.476;11.016;2023-09-08T01:25:24;98574.75;;;20.14;45.14
21300;BME280;10809;49.476;11.016;2023-09-08T01:28:00;98568.78;;;20.10;44.96
21300;BME280;10809;49.476;11.016;2023-09-08T01:30:32;98573.56;;;20.07;45.32
21300;BME280;10809;49.476;11.016;2023-09-08T01:33:04;98574.72;;;20.04;45.24
21300;BME280;10809;49.476;11.016;2023-09-08T01:35:35;98576.81;;;20.01;45.33
21300;BME280;10809;49.476;11.016;2023-09-08T01:38:09;98571.84;;;19.96;45.15
21300;BME280;10809;49.476;11.016;2023-09-08T01:40:39;98576.50;;;19.94;45.31
21300;BME280;10809;49.476;11.016;2023-09-08T01:43:10;98571.41;;;19.91;45.26
21300;BME280;10809;49.476;11.016;2023-09-08T01:45:40;98572.69;;;19.87;45.29
21300;BME280;10809;49.476;11.016;2023-09-08T01:48:11;98564.88;;;19.84;45.51
21300;BME280;10809;49.476;11.016;2023-09-08T01:50:41;98568.72;;;19.82;45.57
21300;BME280;10809;49.476;11.016;2023-09-08T01:53:12;98568.13;;;19.78;45.58
21300;BME280;10809;49.476;11.016;2023-09-08T01:55:42;98566.56;;;19.75;45.67
21300;BME280;10809;49.476;11.016;2023-09-08T01:58:13;98568.66;;;19.72;45.73
21300;BME280;10809;49.476;11.016;2023-09-08T02:00:48;98575.31;;;19.68;45.59
21300;BME280;10809;49.476;11.016;2023-09-08T02:03:18;98568.34;;;19.65;45.65
21300;BME280;10809;49.476;11.016;2023-09-08T02:05:49;98567.78;;;19.62;45.70
21300;BME280;10809;49.476;11.016;2023-09-08T02:08:19;98567.19;;;19.58;45.76
21300;BME280;10809;49.476;11.016;2023-09-08T02:10:50;98568.31;;;19.56;45.86
21300;BME280;10809;49.476;11.016;2023-09-08T02:13:23;98567.75;;;19.52;45.87
21300;BME280;10809;49.476;11.016;2023-09-08T02:15:54;98570.78;;;19.48;46.00
21300;BME280;10809;49.476;11.016;2023-09-08T02:18:25;98567.38;;;19.46;46.01
21300;BME280;10809;49.476;11.016;2023-09-08T02:20:55;98565.97;;;19.42;46.09
21300;BME280;10809;49.476;11.016;2023-09-08T02:23:26;98566.22;;;19.39;46.06
21300;BME280;10809;49.476;11.016;2023-09-08T02:25:57;98569.19;;;19.36;46.26
21300;BME280;10809;49.476;11.016;2023-09-08T02:28:28;98569.47;;;19.33;46.12
21300;BME280;10809;49.476;11.016;2023-09-08T02:30:58;98577.78;;;19.30;46.15
21300;BME280;10809;49.476;11.016;2023-09-08T02:33:29;98581.69;;;19.26;46.30
21300;BME280;10809;49.476;11.016;2023-09-08T02:36:08;98578.44;;;19.22;46.17
21300;BME280;10809;49.476;11.016;2023-09-08T02:38:41;98581.25;;;19.21;46.32
21300;BME280;10809;49.476;11.016;2023-09-08T02:41:12;98578.97;;;19.16;46.35
21300;BME280;10809;49.476;11.016;2023-09-08T02:43:44;98582.75;;;19.14;46.44
21300;BME280;10809;49.476;11.016;2023-09-08T02:46:15;98576.81;;;19.10;46.44
21300;BME280;10809;49.476;11.016;2023-09-08T02:48:46;98576.22;;;19.07;46.44
21300;BME280;10809;49.476;11.016;2023-09-08T02:51:17;98579.16;;;19.04;46.60
21300;BME280;10809;49.476;11.016;2023-09-08T02:53:47;98582.09;;;19.01;46.54
21300;BME280;10809;49.476;11.016;2023-09-08T02:56:17;98583.19;;;18.98;46.58
21300;BME280;10809;49.476;11.016;2023-09-08T02:58:48;98579.94;;;18.95;46.57
21300;BME280;10809;49.476;11.016;2023-09-08T03:01:20;98589.97;;;18.93;46.65
21300;BME280;10809;49.476;11.016;2023-09-08T03:03:50;98581.31;;;18.89;46.75
21300;BME280;10809;49.476;11.016;2023-09-08T03:06:23;98582.56;;;18.85;46.71
21300;BME280;10809;49.476;11.016;2023-09-08T03:08:54;98581.97;;;18.82;46.66
21300;BME280;10809;49.476;11.016;2023-09-08T03:11:27;98586.75;;;18.78;46.66
21300;BME280;10809;49.476;11.016;2023-09-08T03:13:58;98582.47;;;18.76;46.85
21300;BME280;10809;49.476;11.016;2023-09-08T03:16:29;98581.88;;;18.72;46.85
21300;BME280;10809;49.476;11.016;2023-09-08T03:19:00;98579.44;;;18.69;46.98
21300;BME280;10809;49.476;11.016;2023-09-08T03:21:31;98571.66;;;18.66;46.93
21300;BME280;10809;49.476;11.016;2023-09-08T03:24:01;98571.06;;;18.63;47.07
21300;BME280;10809;49.476;11.016;2023-09-08T03:26:35;98573.00;;;18.61;47.09
21300;BME280;10809;49.476;11.016;2023-09-08T03:29:05;98566.22;;;18.57;47.14
21300;BME280;10809;49.476;11.016;2023-09-08T03:31:36;98565.59;;;18.53;47.14
21300;BME280;10809;49.476;11.016;2023-09-08T03:34:06;98568.53;;;18.50;47.09
21300;BME280;10809;49.476;11.016;2023-09-08T03:36:37;98565.25;;;18.47;47.17
21300;BME280;10809;49.476;11.016;2023-09-08T03:39:08;98569.91;;;18.45;47.19
21300;BME280;10809;49.476;11.016;2023-09-08T03:41:39;98564.81;;;18.42;47.32
21300;BME280;10809;49.476;11.016;2023-09-08T03:44:10;98562.38;;;18.39;47.27
21300;BME280;10809;49.476;11.016;2023-09-08T03:46:40;98559.97;;;18.36;47.25
21300;BME280;10809;49.476;11.016;2023-09-08T03:49:11;98562.88;;;18.33;47.35
21300;BME280;10809;49.476;11.016;2023-09-08T03:51:41;98559.47;;;18.31;47.35
21300;BME280;10809;49.476;11.016;2023-09-08T03:54:12;98564.22;;;18.27;47.42
21300;BME280;10809;49.476;11.016;2023-09-08T03:56:42;98553.75;;;18.24;47.49
21300;BME280;10809;49.476;11.016;2023-09-08T03:59:13;98563.91;;;18.21;47.40
21300;BME280;10809;49.476;11.016;2023-09-08T04:01:43;98563.19;;;18.19;47.46
21300;BME280;10809;49.476;11.016;2023-09-08T04:04:13;98561.59;;;18.16;47.65
21300;BME280;10809;49.476;11.016;2023-09-08T04:06:44;98566.34;;;18.13;47.66
21300;BME280;10809;49.476;11.016;2023-09-08T04:09:14;98569.28;;;18.09;47.49
21300;BME280;10809;49.476;11.016;2023-09-08T04:11:48;98566.88;;;18.06;47.69
21300;BME280;10809;49.476;11.016;2023-09-08T04:14:18;98573.31;;;18.04;47.83
21300;BME280;10809;49.476;11.016;2023-09-08T04:16:49;98569.06;;;18.01;47.93
21300;BME280;10809;49.476;11.016;2023-09-08T04:19:19;98578.22;;;17.99;47.93
21300;BME280;10809;49.476;11.016;2023-09-08T04:21:50;98570.41;;;17.96;47.97
21300;BME280;10809;49.476;11.016;2023-09-08T04:24:20;98566.97;;;17.94;48.07
21300;BME280;10809;49.476;11.016;2023-09-08T04:26:51;98568.09;;;17.91;48.10
21300;BME280;10809;49.476;11.016;2023-09-08T04:29:21;98573.69;;;17.88;48.05
21300;BME280;10809;49.476;11.016;2023-09-08T04:31:52;98574.78;;;17.86;48.23
21300;BME280;10809;49.476;11.016;2023-09-08T04:34:22;98582.94;;;17.84;48.18
21300;BME280;10809;49.476;11.016;2023-09-08T04:36:53;98576.88;;;17.82;48.13
21300;BME280;10809;49.476;11.016;2023-09-08T04:39:23;98572.47;;;17.81;48.24
21300;BME280;10809;49.476;11.016;2023-09-08T04:41:54;98578.06;;;17.78;48.22
21300;BME280;10809;49.476;11.016;2023-09-08T04:44:24;98574.69;;;17.76;48.42
21300;BME280;10809;49.476;11.016;2023-09-08T04:46:56;98585.63;;;17.73;48.35
21300;BME280;10809;49.476;11.016;2023-09-08T04:49:29;98583.91;;;17.72;48.31
21300;BME280;10809;49.476;11.016;2023-09-08T04:52:00;98584.16;;;17.69;48.35
21300;BME280;10809;49.476;11.016;2023-09-08T04:54:32;98583.47;;;17.67;48.63
21300;BME280;10809;49.476;11.016;2023-09-08T04:57:03;98591.63;;;17.66;48.49
21300;BME280;10809;49.476;11.016;2023-09-08T04:59:33;98583.81;;;17.63;48.58
21300;BME280;10809;49.476;11.016;2023-09-08T05:02:04;98591.13;;;17.61;48.58
21300;BME280;10809;49.476;11.016;2023-09-08T05:04:34;98585.88;;;17.59;48.77
21300;BME280;10809;49.476;11.016;2023-09-08T05:07:08;98591.38;;;17.58;48.78
21300;BME280;10809;49.476;11.016;2023-09-08T05:09:38;98586.13;;;17.56;48.79
21300;BME280;10809;49.476;11.016;2023-09-08T05:12:09;98596.97;;;17.55;48.76
21300;BME280;10809;49.476;11.016;2023-09-08T05:14:40;98589.16;;;17.52;48.97
21300;BME280;10809;49.476;11.016;2023-09-08T05:17:11;98586.50;;;17.52;49.00
21300;BME280;10809;49.476;11.016;2023-09-08T05:19:42;98583.94;;;17.50;48.96
21300;BME280;10809;49.476;11.016;2023-09-08T05:22:12;98590.13;;;17.51;49.02
21300;BME280;10809;49.476;11.016;2023-09-08T05:24:43;98590.38;;;17.48;49.03
21300;BME280;10809;49.476;11.016;2023-09-08T05:27:16;98589.53;;;17.47;49.15
21300;BME280;10809;49.476;11.016;2023-09-08T05:29:47;98597.56;;;17.47;49.15
21300;BME280;10809;49.476;11.016;2023-09-08T05:32:21;98601.94;;;17.48;49.35
21300;BME280;10809;49.476;11.016;2023-09-08T05:34:52;98597.56;;;17.47;49.18
21300;BME280;10809;49.476;11.016;2023-09-08T05:37:26;98601.94;;;17.48;49.28
21300;BME280;10809;49.476;11.016;2023-09-08T05:39:56;98601.94;;;17.48;49.51
21300;BME280;10809;49.476;11.016;2023-09-08T05:42:31;98605.34;;;17.50;49.50
21300;BME280;10809;49.476;11.016;2023-09-08T05:45:01;98603.50;;;17.51;49.68
21300;BME280;10809;49.476;11.016;2023-09-08T05:47:32;98601.69;;;17.51;49.80
21300;BME280;10809;49.476;11.016;2023-09-08T05:50:02;98609.59;;;17.53;49.69
21300;BME280;10809;49.476;11.016;2023-09-08T05:52:36;98612.16;;;17.54;49.83
21300;BME280;10809;49.476;11.016;2023-09-08T05:55:07;98612.16;;;17.54;49.82
21300;BME280;10809;49.476;11.016;2023-09-08T05:57:52;98611.22;;;17.55;50.02
21300;BME280;10809;49.476;11.016;2023-09-08T06:00:26;98607.44;;;17.58;50.06
21300;BME280;10809;49.476;11.016;2023-09-08T06:02:57;98608.28;;;17.58;50.00
21300;BME280;10809;49.476;11.016;2023-09-08T06:05:34;98607.19;;;17.61;50.26
21300;BME280;10809;49.476;11.016;2023-09-08T06:08:04;98605.25;;;17.63;50.34
21300;BME280;10809;49.476;11.016;2023-09-08T06:10:35;98615.59;;;17.67;50.51
21300;BME280;10809;49.476;11.016;2023-09-08T06:13:06;98616.31;;;17.69;50.58
21300;BME280;10809;49.476;11.016;2023-09-08T06:15:44;98611.56;;;17.73;50.53
21300;BME280;10809;49.476;11.016;2023-09-08T06:18:15;98615.69;;;17.77;50.58
21300;BME280;10809;49.476;11.016;2023-09-08T06:20:47;98608.28;;;17.80;50.61
21300;BME280;10809;49.476;11.016;2023-09-08T06:23:20;98611.56;;;17.84;50.37
21300;BME280;10809;49.476;11.016;2023-09-08T06:25:56;98604.13;;;17.87;50.61
21300;BME280;10809;49.476;11.016;2023-09-08T06:28:30;98612.66;;;17.92;50.69
21300;BME280;10809;49.476;11.016;2023-09-08T06:31:01;98609.63;;;17.97;50.74
21300;BME280;10809;49.476;11.016;2023-09-08T06:33:33;98605.72;;;18.01;50.59
21300;BME280;10809;49.476;11.016;2023-09-08T06:36:04;98612.41;;;18.06;50.68
21300;BME280;10809;49.476;11.016;2023-09-08T06:38:35;98601.44;;;18.09;50.65
21300;BME280;10809;49.476;11.016;2023-09-08T06:41:11;98606.44;;;18.14;50.80
21300;BME280;10809;49.476;11.016;2023-09-08T06:43:45;98604.13;;;18.21;50.67
21300;BME280;10809;49.476;11.016;2023-09-08T06:46:23;98602.63;;;18.28;50.70
21300;BME280;10809;49.476;11.016;2023-09-08T06:48:54;98601.13;;;18.35;50.97
21300;BME280;10809;49.476;11.016;2023-09-08T06:51:28;98602.34;;;18.42;50.92
21300;BME280;10809;49.476;11.016;2023-09-08T06:53:58;98599.84;;;18.50;51.03
21300;BME280;10809;49.476;11.016;2023-09-08T06:56:35;98603.50;;;18.60;51.04
21300;BME280;10809;49.476;11.016;2023-09-08T06:59:06;98602.47;;;18.72;51.42
21300;BME280;10809;49.476;11.016;2023-09-08T07:01:37;98601.22;;;18.87;51.42
21300;BME280;10809;49.476;11.016;2023-09-08T07:04:08;98607.97;;;19.02;51.38
21300;BME280;10809;49.476;11.016;2023-09-08T07:06:39;98605.44;;;19.21;51.64
21300;BME280;10809;49.476;11.016;2023-09-08T07:09:12;98605.53;;;19.40;51.58
21300;BME280;10809;49.476;11.016;2023-09-08T07:11:46;98607.38;;;19.60;51.25
21300;BME280;10809;49.476;11.016;2023-09-08T07:14:16;98621.00;;;19.77;51.04
21300;BME280;10809;49.476;11.016;2023-09-08T07:16:47;98606.94;;;19.95;51.04
21300;BME280;10809;49.476;11.016;2023-09-08T07:19:18;98611.53;;;20.13;51.21
21300;BME280;10809;49.476;11.016;2023-09-08T07:21:48;98607.06;;;20.33;51.17
21300;BME280;10809;49.476;11.016;2023-09-08T07:24:19;98603.44;;;20.53;50.94
21300;BME280;10809;49.476;11.016;2023-09-08T07:26:55;98608.38;;;20.76;50.83
21300;BME280;10809;49.476;11.016;2023-09-08T07:29:27;98600.06;;;20.98;50.94
21300;BME280;10809;49.476;11.016;2023-09-08T07:31:57;98601.47;;;21.21;50.94
21300;BME280;10809;49.476;11.016;2023-09-08T07:34:34;98604.09;;;21.50;50.49
21300;BME280;10809;49.476;11.016;2023-09-08T07:37:05;98597.63;;;21.80;50.88
21300;BME280;10809;49.476;11.016;2023-09-08T07:39:35;98596.34;;;22.11;51.06
21300;BME280;10809;49.476;11.016;2023-09-08T07:42:07;98586.94;;;22.42;50.68
21300;BME280;10809;49.476;11.016;2023-09-08T07:44:41;98595.66;;;22.71;50.27
21300;BME280;10809;49.476;11.016;2023-09-08T07:47:12;98592.88;;;22.98;50.50
21300;BME280;10809;49.476;11.016;2023-09-08T07:49:45;98592.13;;;23.23;49.79
21300;BME280;10809;49.476;11.016;2023-09-08T07:52:15;98595.13;;;23.46;49.80
21300;BME280;10809;49.476;11.016;2023-09-08T07:54:46;98594.63;;;23.68;49.68
21300;BME280;10809;49.476;11.016;2023-09-08T07:57:16;98599.31;;;23.91;49.86
21300;BME280;10809;49.476;11.016;2023-09-08T07:59:47;98591.31;;;24.15;49.48
21300;BME280;10809;49.476;11.016;2023-09-08T08:02:17;98590.41;;;24.40;49.50
21300;BME280;10809;49.476;11.016;2023-09-08T08:04:47;98593.19;;;24.64;49.34
21300;BME280;10809;49.476;11.016;2023-09-08T08:07:18;98586.78;;;24.90;48.82
21300;BME280;10809;49.476;11.016;2023-09-08T08:09:48;98581.88;;;25.17;48.92
21300;BME280;10809;49.476;11.016;2023-09-08T08:12:22;98587.78;;;25.45;48.34
21300;BME280;10809;49.476;11.016;2023-09-08T08:14:52;98574.72;;;25.72;48.14
21300;BME280;10809;49.476;11.016;2023-09-08T08:17:23;98578.66;;;26.00;47.87
21300;BME280;10809;49.476;11.016;2023-09-08T08:19:54;98575.38;;;26.29;47.68
21300;BME280;10809;49.476;11.016;2023-09-08T08:22:25;98581.63;;;26.60;47.12
21300;BME280;10809;49.476;11.016;2023-09-08T08:24:55;98584.53;;;26.89;47.12
21300;BME280;10809;49.476;11.016;2023-09-08T08:27:26;98578.50;;;27.16;46.29
21300;BME280;10809;49.476;11.016;2023-09-08T08:29:59;98579.84;;;27.43;45.95
21300;BME280;10809;49.476;11.016;2023-09-08T08:32:31;98575.34;;;27.64;45.35
21300;BME280;10809;49.476;11.016;2023-09-08T08:35:01;98574.28;;;27.88;45.88
21300;BME280;10809;49.476;11.016;2023-09-08T08:37:31;98572.00;;;28.06;44.90
21300;BME280;10809;49.476;11.016;2023-09-08T08:40:02;98575.19;;;28.24;44.47
21300;BME280;10809;49.476;11.016;2023-09-08T08:42:34;98570.75;;;28.38;43.92
21300;BME280;10809;49.476;11.016;2023-09-08T08:45:05;98567.56;;;28.49;43.42
21300;BME280;10809;49.476;11.016;2023-09-08T08:47:42;98571.84;;;28.58;43.29
21300;BME280;10809;49.476;11.016;2023-09-08T08:50:13;98574.19;;;28.61;42.91
21300;BME280;10809;49.476;11.016;2023-09-08T08:52:44;98578.00;;;28.66;42.82
21300;BME280;10809;49.476;11.016;2023-09-08T08:55:15;98568.63;;;28.69;42.41
21300;BME280;10809;49.476;11.016;2023-09-08T08:57:46;98571.97;;;28.71;41.47
21300;BME280;10809;49.476;11.016;2023-09-08T09:00:16;98563.19;;;28.69;41.35
21300;BME280;10809;49.476;11.016;2023-09-08T09:02:49;98561.84;;;28.65;41.74
21300;BME280;10809;49.476;11.016;2023-09-08T09:05:22;98562.44;;;28.60;40.95
21300;BME280;10809;49.476;11.016;2023-09-08T09:07:53;98548.94;;;28.52;41.23
21300;BME280;10809;49.476;11.016;2023-09-08T09:10:25;98552.63;;;28.45;40.79
21300;BME280;10809;49.476;11.016;2023-09-08T09:12:56;98551.88;;;28.36;40.59
21300;BME280;10809;49.476;11.016;2023-09-08T09:15:30;98547.94;;;28.24;40.67
21300;BME280;10809;49.476;11.016;2023-09-08T09:18:07;98551.16;;;28.13;40.80
21300;BME280;10809;49.476;11.016;2023-09-08T09:20:38;98551.84;;;28.00;40.56
21300;BME280;10809;49.476;11.016;2023-09-08T09:23:10;98544.34;;;27.88;40.49
21300;BME280;10809;49.476;11.016;2023-09-08T09:25:43;98544.78;;;27.77;39.98
21300;BME280;10809;49.476;11.016;2023-09-08T09:28:14;98546.06;;;27.66;40.45
21300;BME280;10809;49.476;11.016;2023-09-08T09:30:48;98543.63;;;27.57;40.52
21300;BME280;10809;49.476;11.016;2023-09-08T09:33:19;98539.31;;;27.48;40.41
21300;BME280;10809;49.476;11.016;2023-09-08T09:35:53;98541.28;;;27.39;40.28
21300;BME280;10809;49.476;11.016;2023-09-08T09:38:26;98540.53;;;27.31;40.61
21300;BME280;10809;49.476;11.016;2023-09-08T09:40:57;98537.69;;;27.24;40.36
21300;BME280;10809;49.476;11.016;2023-09-08T09:43:28;98542.97;;;27.18;40.00
21300;BME280;10809;49.476;11.016;2023-09-08T09:46:00;98536.41;;;27.12;39.93
21300;BME280;10809;49.476;11.016;2023-09-08T09:48:31;98537.16;;;27.06;39.59
21300;BME280;10809;49.476;11.016;2023-09-08T09:51:18;98530.56;;;27.01;40.41
21300;BME280;10809;49.476;11.016;2023-09-08T09:53:54;98530.28;;;26.96;40.04
21300;BME280;10809;49.476;11.016;2023-09-08T09:56:25;98529.78;;;26.92;39.47
21300;BME280;10809;49.476;11.016;2023-09-08T09:58:57;98524.03;;;26.87;39.77
21300;BME280;10809;49.476;11.016;2023-09-08T10:01:27;98532.56;;;26.84;39.51
21300;BME280;10809;49.476;11.016;2023-09-08T10:03:59;98525.44;;;26.83;39.25
21300;BME280;10809;49.476;11.016;2023-09-08T10:06:35;98531.06;;;26.82;39.69
21300;BME280;10809;49.476;11.016;2023-09-08T10:09:06;98531.25;;;26.80;39.26
21300;BME280;10809;49.476;11.016;2023-09-08T10:11:54;98525.13;;;26.78;39.77
21300;BME280;10809;49.476;11.016;2023-09-08T10:14:28;98524.47;;;26.76;39.56
21300;BME280;10809;49.476;11.016;2023-09-08T10:17:01;98518.03;;;26.77;39.18
21300;BME280;10809;49.476;11.016;2023-09-08T10:19:33;98525.13;;;26.78;39.71
21300;BME280;10809;49.476;11.016;2023-09-08T10:22:11;98517.66;;;26.80;39.70
21300;BME280;10809;49.476;11.016;2023-09-08T10:24:47;98510.00;;;26.84;39.41
21300;BME280;10809;49.476;11.016;2023-09-08T10:27:28;98512.91;;;26.82;39.46
21300;BME280;10809;49.476;11.016;2023-09-08T10:30:03;98507.28;;;26.84;39.30
21300;BME280;10809;49.476;11.016;2023-09-08T10:32:35;98511.88;;;26.83;38.98
21300;BME280;10809;49.476;11.016;2023-09-08T10:35:07;98505.56;;;26.83;39.26
21300;BME280;10809;49.476;11.016;2023-09-08T10:37:38;98503.72;;;26.83;38.92
21300;BME280;10809;49.476;11.016;2023-09-08T10:40:24;98502.66;;;26.84;39.17
21300;BME280;10809;49.476;11.016;2023-09-08T10:43:09;98499.75;;;26.86;39.37
21300;BME280;10809;49.476;11.016;2023-09-08T10:45:40;98501.47;;;26.87;39.37
21300;BME280;10809;49.476;11.016;2023-09-08T10:48:12;98498.41;;;26.90;39.07
21300;BME280;10809;49.476;11.016;2023-09-08T10:50:44;98483.22;;;26.95;39.16
21300;BME280;10809;49.476;11.016;2023-09-08T10:53:18;98481.81;;;26.99;38.92
21300;BME280;10809;49.476;11.016;2023-09-08T10:55:58;98482.09;;;27.04;38.89
21300;BME280;10809;49.476;11.016;2023-09-08T10:58:33;98489.22;;;27.05;38.52
21300;BME280;10809;49.476;11.016;2023-09-08T11:01:07;98483.59;;;27.07;38.31
21300;BME280;10809;49.476;11.016;2023-09-08T11:06:09;98484.25;;;27.09;38.25
21300;BME280;10809;49.476;11.016;2023-09-08T11:08:43;98490.38;;;27.11;38.04
21300;BME280;10809;49.476;11.016;2023-09-08T11:11:16;98491.00;;;27.13;38.21
21300;BME280;10809;49.476;11.016;2023-09-08T11:13:47;98490.63;;;27.16;37.88
21300;BME280;10809;49.476;11.016;2023-09-08T11:16:17;98499.31;;;27.19;37.91
21300;BME280;10809;49.476;11.016;2023-09-08T11:18:53;98496.91;;;27.24;38.31
21300;BME280;10809;49.476;11.016;2023-09-08T11:21:23;98496.16;;;27.30;38.24
21300;BME280;10809;49.476;11.016;2023-09-08T11:23:54;98486.38;;;27.36;37.85
21300;BME280;10809;49.476;11.016;2023-09-08T11:26:24;98486.69;;;27.41;37.99
21300;BME280;10809;49.476;11.016;2023-09-08T11:28:55;98481.34;;;27.47;37.90
21300;BME280;10809;49.476;11.016;2023-09-08T11:31:25;98481.59;;;27.52;37.92
21300;BME280;10809;49.476;11.016;2023-09-08T11:33:56;98482.09;;;27.56;37.60
21300;BME280;10809;49.476;11.016;2023-09-08T11:36:26;98478.13;;;27.58;37.69
21300;BME280;10809;49.476;11.016;2023-09-08T11:38:58;98482.38;;;27.61;37.25
21300;BME280;10809;49.476;11.016;2023-09-08T11:41:29;98476.75;;;27.62;37.26
21300;BME280;10809;49.476;11.016;2023-09-08T11:43:59;98480.75;;;27.66;37.67
21300;BME280;10809;49.476;11.016;2023-09-08T11:46:30;98479.34;;;27.70;37.44
21300;BME280;10809;49.476;11.016;2023-09-08T11:49:00;98484.91;;;27.77;37.48
21300;BME280;10809;49.476;11.016;2023-09-08T11:51:31;98484.34;;;27.81;37.80
21300;BME280;10809;49.476;11.016;2023-09-08T11:54:01;98482.56;;;27.88;37.36
21300;BME280;10809;49.476;11.016;2023-09-08T11:56:32;98479.09;;;27.94;37.55
21300;BME280;10809;49.476;11.016;2023-09-08T11:59:03;98469.28;;;28.00;37.00
21300;BME280;10809;49.476;11.016;2023-09-08T12:01:34;98473.13;;;28.05;36.91
21300;BME280;10809;49.476;11.016;2023-09-08T12:04:04;98467.28;;;28.08;37.02
21300;BME280;10809;49.476;11.016;2023-09-08T12:06:35;98463.38;;;28.11;36.83
21300;BME280;10809;49.476;11.016;2023-09-08T12:09:07;98469.44;;;28.13;36.47
21300;BME280;10809;49.476;11.016;2023-09-08T12:11:37;98471.97;;;28.15;36.17
21300;BME280;10809;49.476;11.016;2023-09-08T12:14:14;98468.88;;;28.18;36.46
21300;BME280;10809;49.476;11.016;2023-09-08T12:16:45;98466.59;;;28.21;36.43
21300;BME280;10809;49.476;11.016;2023-09-08T12:19:31;98457.66;;;28.27;36.79
21300;BME280;10809;49.476;11.016;2023-09-08T12:22:03;98463.41;;;28.32;36.65
21300;BME280;10809;49.476;11.016;2023-09-08T12:24:56;98461.78;;;28.38;36.36
21300;BME280;10809;49.476;11.016;2023-09-08T12:27:30;98458.47;;;28.42;36.38
21300;BME280;10809;49.476;11.016;2023-09-08T12:30:06;98456.88;;;28.48;36.03
21300;BME280;10809;49.476;11.016;2023-09-08T12:32:38;98454.19;;;28.54;36.03
21300;BME280;10809;49.476;11.016;2023-09-08T12:35:09;98445.44;;;28.59;36.04
21300;BME280;10809;49.476;11.016;2023-09-08T12:37:39;98449.28;;;28.64;35.99
21300;BME280;10809;49.476;11.016;2023-09-08T12:40:10;98444.06;;;28.69;35.38
21300;BME280;10809;49.476;11.016;2023-09-08T12:42:41;98451.03;;;28.72;35.87
21300;BME280;10809;49.476;11.016;2023-09-08T12:45:11;98448.91;;;28.74;35.73
21300;BME280;10809;49.476;11.016;2023-09-08T12:47:42;98444.97;;;28.76;35.56
21300;BME280;10809;49.476;11.016;2023-09-08T12:50:13;98443.72;;;28.79;35.03
21300;BME280;10809;49.476;11.016;2023-09-08T12:52:44;98430.75;;;28.81;35.06
21300;BME280;10809;49.476;11.016;2023-09-08T12:55:14;98426.59;;;28.85;35.24
21300;BME280;10809;49.476;11.016;2023-09-08T12:57:49;98426.00;;;28.89;35.61
21300;BME280;10809;49.476;11.016;2023-09-08T13:00:21;98430.88;;;28.94;35.23
21300;BME280;10809;49.476;11.016;2023-09-08T13:02:53;98438.47;;;28.98;34.85
21300;BME280;10809;49.476;11.016;2023-09-08T13:05:23;98431.59;;;29.02;34.71
21300;BME280;10809;49.476;11.016;2023-09-08T13:07:54;98435.38;;;29.08;34.64
21300;BME280;10809;49.476;11.016;2023-09-08T13:10:24;98425.97;;;29.10;34.83
21300;BME280;10809;49.476;11.016;2023-09-08T13:12:55;98415.50;;;29.14;34.20
21300;BME280;10809;49.476;11.016;2023-09-08T13:15:26;98424.97;;;29.18;34.15
21300;BME280;10809;49.476;11.016;2023-09-08T13:17:56;98421.63;;;29.22;34.43
21300;BME280;10809;49.476;11.016;2023-09-08T13:20:26;98421.03;;;29.27;34.21